METAR Data
IDs: Format: Raw Decoded Include TAF

Data at: 1050 UTC 20 Sep 2019

METAR for:KDRO (Durango/La Plata Cnt, CO, US)
Text:KDRO 200953Z AUTO 35003KT 10SM CLR 10/08 A3007 RMK AO2 SLP106 T01000083
Temperature: 10.0°C ( 50°F)
Dewpoint: 8.3°C ( 47°F) [RH = 89%]
Pressure (altimeter):30.07 inches Hg (1018.4 mb) [Sea level pressure: 1010.6 mb]
Winds:from the N (350 degrees) at 3 MPH (3 knots; 1.5 m/s)
Visibility:10 or more sm (16+ km)
Ceiling:at least 12,000 feet AGL
Clouds:sky clear below 12,000 feet AGL
QC Flag:automated observation with no human augmentation